createdAt,value
2023-02-21T00:02:20.927Z,5.07
2023-02-21T00:05:06.697Z,5.20
2023-02-21T00:07:52.862Z,5.30
2023-02-21T00:10:38.974Z,5.83
2023-02-21T00:13:24.909Z,5.00
2023-02-21T00:16:11.129Z,4.93
2023-02-21T00:18:57.540Z,5.73
2023-02-21T00:21:44.025Z,5.53
2023-02-21T00:24:32.419Z,5.33
2023-02-21T00:27:18.366Z,5.60
2023-02-21T00:30:04.434Z,6.03
2023-02-21T00:32:50.177Z,6.43
2023-02-21T00:35:36.008Z,6.00
2023-02-21T00:38:21.900Z,5.80
2023-02-21T00:41:08.142Z,4.70
2023-02-21T00:43:54.928Z,5.23
2023-02-21T00:46:40.973Z,6.40
2023-02-21T00:49:27.092Z,5.20
2023-02-21T00:52:13.127Z,4.70
2023-02-21T00:54:59.389Z,5.10
2023-02-21T00:57:45.475Z,5.53
2023-02-21T01:00:35.563Z,5.00
2023-02-21T01:03:21.506Z,5.20
2023-02-21T01:06:07.488Z,4.43
2023-02-21T01:08:53.321Z,5.20
2023-02-21T01:11:40.389Z,5.43
2023-02-21T01:14:28.337Z,5.70
2023-02-21T01:17:14.341Z,4.40
2023-02-21T01:20:01.048Z,5.07
2023-02-21T01:22:47.337Z,5.07
2023-02-21T01:25:33.745Z,4.77
2023-02-21T01:28:20.304Z,5.53
2023-02-21T01:31:06.370Z,4.73
2023-02-21T01:33:59.060Z,5.77
2023-02-21T01:36:45.092Z,6.17
2023-02-21T01:39:31.095Z,7.00
2023-02-21T01:42:17.120Z,5.10
2023-02-21T01:45:06.973Z,6.40
2023-02-21T01:47:52.790Z,6.07
2023-02-21T01:50:40.660Z,5.07
2023-02-21T01:53:52.276Z,5.03
2023-02-21T01:56:38.219Z,5.03
2023-02-21T01:59:24.007Z,4.80
2023-02-21T02:02:12.590Z,5.07
2023-02-21T02:04:58.696Z,5.03
2023-02-21T02:07:44.544Z,4.43
2023-02-21T02:10:31.514Z,4.93
2023-02-21T02:13:17.220Z,5.80
2023-02-21T02:15:59.242Z,4.53
2023-02-21T02:18:40.780Z,4.70
2023-02-21T02:21:07.932Z,4.83
2023-02-21T02:23:47.030Z,4.87
2023-02-21T02:26:34.920Z,4.17
2023-02-21T02:29:20.607Z,5.00
2023-02-21T02:31:53.828Z,4.20
2023-02-21T02:34:39.925Z,5.30
2023-02-21T02:37:18.043Z,4.20
2023-02-21T02:39:45.158Z,4.60
2023-02-21T02:42:17.056Z,4.97
2023-02-21T02:44:51.058Z,4.13
2023-02-21T02:47:20.980Z,4.37
2023-02-21T02:49:49.019Z,3.97
2023-02-21T02:52:16.155Z,4.47
2023-02-21T02:54:43.296Z,4.00
2023-02-21T02:57:13.165Z,4.23
2023-02-21T02:59:42.926Z,4.27
2023-02-21T03:02:22.125Z,4.37
2023-02-21T03:04:49.263Z,4.30
2023-02-21T03:07:22.615Z,4.20
2023-02-21T03:09:55.963Z,4.27
2023-02-21T03:12:42.440Z,4.17
2023-02-21T03:15:13.258Z,3.97
2023-02-21T03:17:43.319Z,3.97
2023-02-21T03:20:11.530Z,4.17
2023-02-21T03:22:38.918Z,3.17
2023-02-21T03:25:06.491Z,3.77
2023-02-21T03:27:34.472Z,4.27
2023-02-21T03:30:04.517Z,4.73
2023-02-21T03:32:34.940Z,4.07
2023-02-21T03:35:02.378Z,3.97
2023-02-21T03:37:31.247Z,3.60
2023-02-21T03:39:58.389Z,3.40
2023-02-21T03:42:25.518Z,3.33
2023-02-21T03:44:52.644Z,3.47
2023-02-21T03:47:19.814Z,3.50
2023-02-21T03:49:47.107Z,3.53
2023-02-21T03:52:14.483Z,3.33
2023-02-21T03:54:41.902Z,3.43
2023-02-21T03:57:09.085Z,2.93
2023-02-21T03:59:36.272Z,3.60
2023-02-21T04:02:03.496Z,2.90
2023-02-21T04:04:30.720Z,3.10
2023-02-21T04:06:57.851Z,3.20
2023-02-21T04:09:26.546Z,3.67
2023-02-21T04:11:53.683Z,2.93
2023-02-21T04:14:21.448Z,2.43
2023-02-21T04:16:48.634Z,3.23
2023-02-21T04:19:15.815Z,3.23
2023-02-21T04:21:42.960Z,3.47
2023-02-21T04:24:10.177Z,2.63
2023-02-21T04:26:37.351Z,2.97
2023-02-21T04:29:04.954Z,3.07
2023-02-21T04:31:35.277Z,3.03
2023-02-21T04:34:11.703Z,3.23
2023-02-21T04:36:39.555Z,3.50
2023-02-21T04:39:06.848Z,3.40
2023-02-21T04:41:34.144Z,3.30
2023-02-21T04:44:01.350Z,2.90
2023-02-21T04:46:28.478Z,2.90
2023-02-21T04:48:55.599Z,3.80
2023-02-21T04:51:23.650Z,3.70
2023-02-21T04:53:51.077Z,3.43
2023-02-21T04:56:22.648Z,3.00
2023-02-21T04:58:50.241Z,2.63
2023-02-21T05:01:18.337Z,3.53
2023-02-21T05:03:45.884Z,2.70
2023-02-21T05:06:18.401Z,2.83
2023-02-21T05:08:45.592Z,2.70
2023-02-21T05:11:13.152Z,2.67
2023-02-21T05:13:40.508Z,2.43
2023-02-21T05:16:07.757Z,3.40
2023-02-21T05:18:34.986Z,2.63
2023-02-21T05:21:03.399Z,3.30
2023-02-21T05:23:34.095Z,3.17
2023-02-21T05:26:05.443Z,3.00
2023-02-21T05:28:33.101Z,3.60
2023-02-21T05:31:01.135Z,2.63
2023-02-21T05:33:28.709Z,3.40
2023-02-21T05:35:56.262Z,2.90
2023-02-21T05:38:24.520Z,2.93
2023-02-21T05:40:51.671Z,3.63
2023-02-21T05:43:19.246Z,3.10
2023-02-21T05:45:46.579Z,2.93
2023-02-21T05:48:13.720Z,3.17
2023-02-21T05:50:40.956Z,2.87
2023-02-21T05:53:10.177Z,2.77
2023-02-21T05:55:37.587Z,3.17
2023-02-21T05:58:04.980Z,3.07
2023-02-21T06:00:32.441Z,3.43
2023-02-21T06:03:00.318Z,2.90
2023-02-21T06:05:28.007Z,3.10
2023-02-21T06:07:55.149Z,3.40
2023-02-21T06:10:22.296Z,3.60
2023-02-21T06:12:49.476Z,3.20
2023-02-21T06:15:16.878Z,3.13
2023-02-21T06:17:44.131Z,3.00
2023-02-21T06:20:13.222Z,3.17
2023-02-21T06:22:40.363Z,3.50
2023-02-21T06:25:07.958Z,3.43
2023-02-21T06:27:35.171Z,3.40
2023-02-21T06:30:02.611Z,3.37
2023-02-21T06:32:29.722Z,3.40
2023-02-21T06:34:57.016Z,3.43
2023-02-21T06:37:24.213Z,3.17
2023-02-21T06:39:51.444Z,3.93
2023-02-21T06:42:19.555Z,2.90
2023-02-21T06:44:47.452Z,3.23
2023-02-21T06:47:15.098Z,3.83
2023-02-21T06:49:42.386Z,3.47
2023-02-21T06:52:09.977Z,3.50
2023-02-21T06:54:37.749Z,2.83
2023-02-21T06:57:05.711Z,3.90
2023-02-21T06:59:33.128Z,3.47
2023-02-21T07:02:00.667Z,3.40
2023-02-21T07:04:27.951Z,2.93
2023-02-21T07:06:55.324Z,3.13
2023-02-21T07:09:22.524Z,2.97
2023-02-21T07:11:49.722Z,3.57
2023-02-21T07:14:16.913Z,2.70
2023-02-21T07:16:44.135Z,3.17
2023-02-21T07:21:43.059Z,3.27
2023-02-21T07:24:10.200Z,3.50
2023-02-21T07:26:37.878Z,3.07
2023-02-21T07:29:06.203Z,2.87
2023-02-21T07:31:33.834Z,2.87
2023-02-21T07:34:01.229Z,3.00
2023-02-21T07:36:28.377Z,2.57
2023-02-21T07:38:55.521Z,2.60
2023-02-21T07:41:22.692Z,2.53
2023-02-21T07:43:50.007Z,2.20
2023-02-21T07:46:18.256Z,2.13
2023-02-21T07:48:45.504Z,2.27
2023-02-21T07:51:12.931Z,2.20
2023-02-21T07:53:41.068Z,2.30
2023-02-21T07:56:08.383Z,2.10
2023-02-21T07:58:37.408Z,1.90
2023-02-21T08:01:05.239Z,1.90
2023-02-21T08:03:32.436Z,1.53
2023-02-21T08:06:00.257Z,1.67
2023-02-21T08:08:27.454Z,1.70
2023-02-21T08:10:54.609Z,1.63
2023-02-21T08:13:21.729Z,1.90
2023-02-21T08:15:49.035Z,1.80
2023-02-21T08:18:19.194Z,1.60
2023-02-21T08:20:46.411Z,2.00
2023-02-21T08:23:13.577Z,1.50
2023-02-21T08:25:40.720Z,1.90
2023-02-21T08:28:07.852Z,1.70
2023-02-21T08:30:35.095Z,1.80
2023-02-21T08:33:02.259Z,1.67
2023-02-21T08:35:29.443Z,1.73
2023-02-21T08:37:56.813Z,1.83
2023-02-21T08:40:24.632Z,1.77
2023-02-21T08:42:52.930Z,1.83
2023-02-21T08:45:21.438Z,2.17
2023-02-21T08:47:49.059Z,1.80
2023-02-21T08:50:16.759Z,1.60
2023-02-21T08:52:46.203Z,1.40
2023-02-21T08:55:13.569Z,1.40
2023-02-21T08:57:40.711Z,1.67
2023-02-21T09:00:14.256Z,1.60
2023-02-21T09:02:41.449Z,1.90
2023-02-21T09:05:08.715Z,1.50
2023-02-21T09:07:35.848Z,1.50
2023-02-21T09:10:03.104Z,1.50
2023-02-21T09:12:30.275Z,1.70
2023-02-21T09:14:57.400Z,1.30
2023-02-21T09:17:24.664Z,1.37
2023-02-21T09:19:51.796Z,1.30
2023-02-21T09:22:18.969Z,1.20
2023-02-21T09:24:46.108Z,1.00
2023-02-21T09:27:17.634Z,0.93
2023-02-21T09:29:46.928Z,0.87
2023-02-21T09:32:14.579Z,1.10
2023-02-21T09:34:41.758Z,0.80
2023-02-21T09:37:08.926Z,1.07
2023-02-21T09:39:39.048Z,1.10
2023-02-21T09:42:06.215Z,0.97
2023-02-21T09:44:33.385Z,1.07
2023-02-21T09:47:04.835Z,0.83
2023-02-21T09:49:34.419Z,0.97
2023-02-21T09:52:02.068Z,0.90
2023-02-21T09:54:32.950Z,1.10
2023-02-21T09:57:01.871Z,0.93
2023-02-21T09:59:29.542Z,0.80
2023-02-21T10:02:16.085Z,1.17
2023-02-21T10:05:03.112Z,0.80
2023-02-21T10:07:49.288Z,1.50
2023-02-21T10:10:29.317Z,1.10
2023-02-21T10:13:29.031Z,0.77
2023-02-21T10:16:00.694Z,0.70
2023-02-21T10:18:48.396Z,0.80
2023-02-21T10:21:18.151Z,0.73
2023-02-21T10:23:46.892Z,0.90
2023-02-21T10:26:20.956Z,0.70
2023-02-21T10:28:48.233Z,0.83
2023-02-21T10:31:20.972Z,0.77
2023-02-21T10:33:48.219Z,0.50
2023-02-21T10:36:18.841Z,0.60
2023-02-21T10:39:07.740Z,0.67
2023-02-21T10:41:37.116Z,0.53
2023-02-21T10:44:08.560Z,1.10
2023-02-21T10:46:40.834Z,0.90
2023-02-21T10:49:29.059Z,0.77
2023-02-21T10:52:04.268Z,0.70
2023-02-21T10:54:33.517Z,1.53
2023-02-21T10:57:03.361Z,0.80
2023-02-21T10:59:31.892Z,0.37
2023-02-21T11:01:59.375Z,0.70
2023-02-21T11:04:36.759Z,0.60
2023-02-21T11:07:07.416Z,0.80
2023-02-21T11:09:44.596Z,0.70
2023-02-21T11:12:20.468Z,0.60
2023-02-21T11:14:53.760Z,1.00
2023-02-21T11:17:20.924Z,0.60
2023-02-21T11:19:50.856Z,0.60
2023-02-21T11:22:20.104Z,0.63
2023-02-21T11:24:59.827Z,0.50
2023-02-21T11:27:28.581Z,0.73
2023-02-21T11:29:56.098Z,0.50
2023-02-21T11:32:27.922Z,0.70
2023-02-21T11:35:02.251Z,0.60
2023-02-21T11:37:29.621Z,0.70
2023-02-21T11:39:56.775Z,0.60
2023-02-21T11:42:26.897Z,0.50
2023-02-21T11:45:26.562Z,0.63
2023-02-21T11:47:58.176Z,0.63
2023-02-21T11:50:27.429Z,0.57
2023-02-21T11:53:01.058Z,0.60
2023-02-21T11:55:28.621Z,0.50
2023-02-21T11:58:28.293Z,0.50
2023-02-21T12:01:05.570Z,0.70
2023-02-21T12:03:38.800Z,1.00
2023-02-21T12:06:14.922Z,0.80
2023-02-21T12:08:48.153Z,0.80
2023-02-21T12:11:18.169Z,0.83
2023-02-21T12:13:45.293Z,0.90
2023-02-21T12:16:22.077Z,0.70
2023-02-21T12:19:08.041Z,0.80
2023-02-21T12:21:35.860Z,1.00
2023-02-21T12:24:08.729Z,0.90
2023-02-21T12:26:44.803Z,0.97
2023-02-21T12:29:14.949Z,0.87
2023-02-21T12:31:52.351Z,1.10
2023-02-21T12:34:25.832Z,1.10
2023-02-21T12:36:55.744Z,0.80
2023-02-21T12:39:41.579Z,1.17
2023-02-21T12:42:28.455Z,0.90
2023-02-21T12:45:07.870Z,0.70
2023-02-21T12:47:42.913Z,1.00
2023-02-21T12:50:10.036Z,0.80
2023-02-21T12:52:40.448Z,0.70
2023-02-21T12:55:13.549Z,0.70
2023-02-21T12:57:49.625Z,0.80
2023-02-21T13:00:17.698Z,0.83
2023-02-21T13:02:51.240Z,0.60
2023-02-21T13:05:21.546Z,0.40
2023-02-21T13:07:55.845Z,0.50
2023-02-21T13:10:25.405Z,0.50
2023-02-21T13:13:00.511Z,1.43
2023-02-21T13:15:30.930Z,0.57
2023-02-21T13:17:58.095Z,0.30
2023-02-21T13:20:27.548Z,0.47
2023-02-21T13:23:32.358Z,0.50
2023-02-21T13:26:17.753Z,0.40
2023-02-21T13:28:46.556Z,0.50
2023-02-21T13:31:21.364Z,0.50
2023-02-21T13:34:08.752Z,0.50
2023-02-21T13:36:39.130Z,0.63
2023-02-21T13:39:09.392Z,1.27
2023-02-21T13:41:38.165Z,0.60
2023-02-21T13:44:10.816Z,0.57
2023-02-21T13:46:37.944Z,0.57
2023-02-21T13:49:23.732Z,0.37
2023-02-21T13:51:53.139Z,0.80
2023-02-21T13:54:24.962Z,0.50
2023-02-21T13:56:52.858Z,0.50
2023-02-21T13:59:26.276Z,0.30
2023-02-21T14:02:13.342Z,0.30
2023-02-21T14:05:10.103Z,0.50
2023-02-21T14:07:49.241Z,0.57
2023-02-21T14:10:38.881Z,0.40
2023-02-21T14:13:19.541Z,0.40
2023-02-21T14:15:47.399Z,0.50
2023-02-21T14:18:16.529Z,0.83
2023-02-21T14:20:43.739Z,0.70
2023-02-21T14:23:15.546Z,0.50
2023-02-21T14:25:42.695Z,0.40
2023-02-21T14:28:36.022Z,0.63
2023-02-21T14:31:03.342Z,0.80
2023-02-21T14:33:31.264Z,1.00
2023-02-21T14:36:00.960Z,0.93
2023-02-21T14:38:29.386Z,0.90
2023-02-21T14:41:05.325Z,0.50
2023-02-21T14:43:51.075Z,0.50
2023-02-21T14:46:37.070Z,0.93
2023-02-21T14:49:22.667Z,0.57
2023-02-21T14:52:03.090Z,0.50
2023-02-21T14:54:42.078Z,0.70
2023-02-21T14:57:28.107Z,0.60
2023-02-21T15:00:00.897Z,0.70
2023-02-21T15:02:49.385Z,1.57
2023-02-21T15:05:31.312Z,0.47
2023-02-21T15:08:04.707Z,0.97
2023-02-21T15:10:33.537Z,0.83
2023-02-21T15:13:05.085Z,0.70
2023-02-21T15:15:35.053Z,0.50
2023-02-21T15:18:04.239Z,0.43
2023-02-21T15:20:33.736Z,0.67
2023-02-21T15:23:13.154Z,0.80
2023-02-21T15:25:40.645Z,0.90
2023-02-21T15:28:08.678Z,0.90
2023-02-21T15:30:37.659Z,0.97
2023-02-21T15:33:18.884Z,0.70
2023-02-21T15:35:51.014Z,1.10
2023-02-21T15:38:24.564Z,0.90
2023-02-21T15:40:55.617Z,0.70
2023-02-21T15:43:25.284Z,0.80
2023-02-21T15:45:53.671Z,1.00
2023-02-21T15:48:20.952Z,0.90
2023-02-21T15:50:48.299Z,1.10
2023-02-21T15:53:18.003Z,0.90
2023-02-21T15:55:45.901Z,1.00
2023-02-21T15:58:15.204Z,0.90
2023-02-21T16:00:44.286Z,0.90
2023-02-21T16:03:28.013Z,1.03
2023-02-21T16:05:56.082Z,0.90
2023-02-21T16:08:23.445Z,1.20
2023-02-21T16:10:50.696Z,0.90
2023-02-21T16:13:19.023Z,1.03
2023-02-21T16:15:46.238Z,0.90
2023-02-21T16:18:18.422Z,1.20
2023-02-21T16:20:45.612Z,1.00
2023-02-21T16:23:12.749Z,0.90
2023-02-21T16:25:58.698Z,1.07
2023-02-21T16:28:26.423Z,1.10
2023-02-21T16:30:55.487Z,1.20
2023-02-21T16:33:22.850Z,1.10
2023-02-21T16:35:50.079Z,1.23
2023-02-21T16:38:18.728Z,1.00
2023-02-21T16:40:46.204Z,1.10
2023-02-21T16:43:31.401Z,1.13
2023-02-21T16:45:59.354Z,1.20
2023-02-21T16:48:33.180Z,1.27
2023-02-21T16:51:05.849Z,1.00
2023-02-21T16:53:33.046Z,1.03
2023-02-21T16:56:01.830Z,1.20
2023-02-21T16:58:30.723Z,1.40
2023-02-21T17:00:58.943Z,1.33
2023-02-21T17:03:27.350Z,1.40
2023-02-21T17:05:54.796Z,1.20
2023-02-21T17:08:22.343Z,1.20
2023-02-21T17:10:49.469Z,1.30
2023-02-21T17:13:16.614Z,1.30
2023-02-21T17:15:43.783Z,1.50
2023-02-21T17:18:10.953Z,1.47
2023-02-21T17:20:38.089Z,1.40
2023-02-21T17:23:05.239Z,1.47
2023-02-21T17:25:34.902Z,1.30
2023-02-21T17:28:02.091Z,1.27
2023-02-21T17:30:31.357Z,1.33
2023-02-21T17:32:58.662Z,1.30
2023-02-21T17:35:26.058Z,1.30
2023-02-21T17:37:53.264Z,1.50
2023-02-21T17:40:21.339Z,1.47
2023-02-21T17:42:48.593Z,1.70
2023-02-21T17:45:19.896Z,1.60
2023-02-21T17:47:47.282Z,1.63
2023-02-21T17:50:14.713Z,1.70
2023-02-21T17:52:42.365Z,1.23
2023-02-21T17:55:10.934Z,1.50
2023-02-21T17:57:40.553Z,1.47
2023-02-21T18:00:14.025Z,1.50
2023-02-21T18:02:41.195Z,1.33
2023-02-21T18:05:08.671Z,1.60
2023-02-21T18:07:36.065Z,1.20
2023-02-21T18:10:04.213Z,1.50
2023-02-21T18:12:33.359Z,2.50
2023-02-21T18:15:00.884Z,1.50
2023-02-21T18:17:28.165Z,1.80
2023-02-21T18:19:55.302Z,1.50
2023-02-21T18:22:22.449Z,1.27
2023-02-21T18:24:49.646Z,1.40
2023-02-21T18:27:16.864Z,1.23
2023-02-21T18:29:45.312Z,1.20
2023-02-21T18:32:12.545Z,1.53
2023-02-21T18:34:39.876Z,1.83
2023-02-21T18:37:08.132Z,1.57
2023-02-21T18:39:35.372Z,1.70
2023-02-21T18:42:02.545Z,1.50
2023-02-21T18:44:29.713Z,1.60
2023-02-21T18:46:58.391Z,1.43
2023-02-21T18:49:26.263Z,1.30
2023-02-21T18:51:53.502Z,1.40
2023-02-21T18:54:21.222Z,1.50
2023-02-21T18:56:49.914Z,1.90
2023-02-21T18:59:17.845Z,1.80
2023-02-21T19:01:48.631Z,1.70
2023-02-21T19:04:15.754Z,1.77
2023-02-21T19:06:42.885Z,1.80
2023-02-21T19:09:10.650Z,1.73
2023-02-21T19:11:38.053Z,1.80
2023-02-21T19:14:05.658Z,1.43
2023-02-21T19:16:33.778Z,1.60
2023-02-21T19:19:03.390Z,1.50
2023-02-21T19:21:30.819Z,1.50
2023-02-21T19:23:58.419Z,1.40
2023-02-21T19:26:29.095Z,1.50
2023-02-21T19:28:56.247Z,1.60
2023-02-21T19:31:23.510Z,1.43
2023-02-21T19:33:50.961Z,1.23
2023-02-21T19:36:18.245Z,1.50
2023-02-21T19:38:45.427Z,1.60
2023-02-21T19:41:12.774Z,1.40
2023-02-21T19:43:39.932Z,1.40
2023-02-21T19:46:07.192Z,1.53
2023-02-21T19:48:34.401Z,1.50
2023-02-21T19:51:01.531Z,1.30
2023-02-21T19:53:28.676Z,1.40
2023-02-21T19:55:55.851Z,1.33
2023-02-21T19:58:22.971Z,1.50
2023-02-21T20:00:50.795Z,1.53
2023-02-21T20:03:17.980Z,1.73
2023-02-21T20:05:45.103Z,1.60
2023-02-21T20:08:12.296Z,1.73
2023-02-21T20:10:39.424Z,1.50
2023-02-21T20:13:07.574Z,1.63
2023-02-21T20:15:37.547Z,1.70
2023-02-21T20:18:05.108Z,1.80
2023-02-21T20:20:32.370Z,1.60
2023-02-21T20:23:02.073Z,1.90
2023-02-21T20:25:29.264Z,1.77
2023-02-21T20:27:56.672Z,1.73
2023-02-21T20:30:25.059Z,1.70
2023-02-21T20:32:53.055Z,1.63
2023-02-21T20:35:20.244Z,1.70
2023-02-21T20:37:47.747Z,1.90
2023-02-21T20:40:18.737Z,1.80
2023-02-21T20:42:45.902Z,1.80
2023-02-21T20:45:13.137Z,1.80
2023-02-21T20:47:40.312Z,1.73
2023-02-21T20:50:07.788Z,1.73
2023-02-21T20:52:35.150Z,1.70
2023-02-21T20:55:03.006Z,1.67
2023-02-21T20:57:30.698Z,2.07
2023-02-21T20:59:57.918Z,1.93
2023-02-21T21:02:25.127Z,1.70
2023-02-21T21:04:54.329Z,1.60
2023-02-21T21:07:24.347Z,1.67
2023-02-21T21:09:51.633Z,1.90
2023-02-21T21:12:20.388Z,1.77
2023-02-21T21:14:48.504Z,1.77
2023-02-21T21:17:17.096Z,1.70
2023-02-21T21:19:45.086Z,1.80
2023-02-21T21:22:14.137Z,1.80
2023-02-21T21:24:41.287Z,2.00
2023-02-21T21:27:14.715Z,1.70
2023-02-21T21:29:43.408Z,1.70
2023-02-21T21:32:16.304Z,1.90
2023-02-21T21:34:47.759Z,1.67
2023-02-21T21:37:15.955Z,1.80
2023-02-21T21:39:49.234Z,1.80
2023-02-21T21:42:20.177Z,1.80
2023-02-21T21:44:51.934Z,1.87
2023-02-21T21:47:31.906Z,1.70
2023-02-21T21:50:02.281Z,1.90
2023-02-21T21:52:29.894Z,1.80
2023-02-21T21:54:57.020Z,1.70
2023-02-21T21:57:27.229Z,1.73
2023-02-21T21:59:55.996Z,1.90
2023-02-21T22:02:23.332Z,1.80
2023-02-21T22:04:53.158Z,2.00
2023-02-21T22:07:20.638Z,1.77
2023-02-21T22:09:47.771Z,1.80
2023-02-21T22:12:18.443Z,2.10
2023-02-21T22:14:45.580Z,1.93
2023-02-21T22:17:12.846Z,1.80
2023-02-21T22:19:39.997Z,1.70
2023-02-21T22:22:08.203Z,2.00
2023-02-21T22:24:35.519Z,1.80
2023-02-21T22:27:02.907Z,1.70
2023-02-21T22:29:30.045Z,1.70
2023-02-21T22:31:58.577Z,1.70
2023-02-21T22:34:26.022Z,1.90
2023-02-21T22:36:54.196Z,1.73
2023-02-21T22:39:22.144Z,1.90
2023-02-21T22:41:49.522Z,1.70
2023-02-21T22:44:16.758Z,1.80
2023-02-21T22:46:45.373Z,1.83
2023-02-21T22:49:12.958Z,1.80
2023-02-21T22:51:40.090Z,1.80
2023-02-21T22:54:07.228Z,1.90
2023-02-21T22:56:38.625Z,2.10
2023-02-21T22:59:12.625Z,1.80
2023-02-21T23:01:39.997Z,1.97
2023-02-21T23:04:16.343Z,1.97
2023-02-21T23:06:44.521Z,1.90
2023-02-21T23:09:14.469Z,1.80
2023-02-21T23:11:48.916Z,1.83
2023-02-21T23:14:18.184Z,1.97
2023-02-21T23:16:45.688Z,1.90
2023-02-21T23:19:12.921Z,1.73
2023-02-21T23:21:50.314Z,1.70
2023-02-21T23:24:19.864Z,1.80
2023-02-21T23:26:47.604Z,1.80
2023-02-21T23:29:15.450Z,1.90
2023-02-21T23:31:42.704Z,1.60
2023-02-21T23:34:10.419Z,1.73
2023-02-21T23:36:39.623Z,1.80
2023-02-21T23:39:10.697Z,1.80
2023-02-21T23:41:40.749Z,1.80
2023-02-21T23:44:10.871Z,1.80
2023-02-21T23:46:42.469Z,1.80
2023-02-21T23:49:10.913Z,1.73
2023-02-21T23:51:46.611Z,1.90
2023-02-21T23:54:15.100Z,1.80
2023-02-21T23:56:46.893Z,1.87
2023-02-21T23:59:15.402Z,1.60
